KSPW/SPW METAR and TAF weather

Enter ICAO airport designator
Station Type Date Time Source
KSPW METAR 2021/01/16 02:16 UTC NOAA

KSPW 160216Z AUTO 33020KT 3SM -SN BR OVC011 M03/M05 A2983 RMK AO2 PK WND 32029/0159 UPE0154SNB0154 P0000 T10281050


Station Type Date Time Source
KSPW Decoded METAR 2021/01/16 02:16 UTC NOAA

SPENCER MUNICIPAL AIRPORT, IA, United States (KSPW) 43-10N 95-13W 403M
Jan 15, 2021 - 09:16 PM EST / 2021.01.16 0216 UTC
Wind: from the NNW (330 degrees) at 23 MPH (20 KT):0
Visibility: 3 mile(s):0
Sky conditions: overcast
Weather: light snow; mist
Precipitation last hour: A trace
Temperature: 27.0 F (-2.8 C)
Windchill: 12 F (-11 C):1
Dew Point: 23.0 F (-5.0 C)
Relative Humidity: 84%
Pressure (altimeter): 29.83 in. Hg (1010 hPa)
ob: KSPW 160216Z AUTO 33020KT 3SM -SN BR OVC011 M03/M05 A2983 RMK AO2 PK WND 32029/0159 UPE0154SNB0154 P0000 T10281050
cycle: 2

Station Type Date Time Source
KSPW TAF UTC NOAA

Error!

Example: see airport list